sensor_id;sensor_type;location;lat;lon;timestamp;P1;durP1;ratioP1;P2;durP2;ratioP2
53409;SDS011;66590;50.734;4.246;2023-02-28T00:02:25;10.43;;;8.57;;
53409;SDS011;66590;50.734;4.246;2023-02-28T00:04:52;13.27;;;7.60;;
53409;SDS011;66590;50.734;4.246;2023-02-28T00:07:21;13.27;;;8.80;;
53409;SDS011;66590;50.734;4.246;2023-02-28T00:09:48;16.75;;;9.32;;
53409;SDS011;66590;50.734;4.246;2023-02-28T00:12:15;14.65;;;8.73;;
53409;SDS011;66590;50.734;4.246;2023-02-28T00:14:42;14.32;;;8.90;;
53409;SDS011;66590;50.734;4.246;2023-02-28T00:17:09;14.95;;;9.90;;
53409;SDS011;66590;50.734;4.246;2023-02-28T00:19:36;19.88;;;10.35;;
53409;SDS011;66590;50.734;4.246;2023-02-28T00:22:03;17.33;;;9.52;;
53409;SDS011;66590;50.734;4.246;2023-02-28T00:24:32;13.95;;;9.43;;
53409;SDS011;66590;50.734;4.246;2023-02-28T00:26:59;17.60;;;9.10;;
53409;SDS011;66590;50.734;4.246;2023-02-28T00:29:26;11.80;;;9.05;;
53409;SDS011;66590;50.734;4.246;2023-02-28T00:31:53;13.57;;;9.10;;
53409;SDS011;66590;50.734;4.246;2023-02-28T00:34:20;9.30;;;8.15;;
53409;SDS011;66590;50.734;4.246;2023-02-28T00:36:47;13.90;;;8.90;;
53409;SDS011;66590;50.734;4.246;2023-02-28T00:39:14;14.27;;;8.80;;
53409;SDS011;66590;50.734;4.246;2023-02-28T00:41:43;14.18;;;9.35;;
53409;SDS011;66590;50.734;4.246;2023-02-28T00:44:10;11.20;;;8.63;;
53409;SDS011;66590;50.734;4.246;2023-02-28T00:46:37;12.13;;;9.18;;
53409;SDS011;66590;50.734;4.246;2023-02-28T00:49:04;12.23;;;9.13;;
53409;SDS011;66590;50.734;4.246;2023-02-28T00:51:31;13.18;;;9.13;;
53409;SDS011;66590;50.734;4.246;2023-02-28T00:53:58;12.00;;;8.55;;
53409;SDS011;66590;50.734;4.246;2023-02-28T00:56:25;9.82;;;8.10;;
53409;SDS011;66590;50.734;4.246;2023-02-28T00:58:54;11.20;;;7.80;;
53409;SDS011;66590;50.734;4.246;2023-02-28T01:01:21;8.75;;;7.15;;
53409;SDS011;66590;50.734;4.246;2023-02-28T01:03:48;9.68;;;7.78;;
53409;SDS011;66590;50.734;4.246;2023-02-28T01:06:15;10.00;;;7.50;;
53409;SDS011;66590;50.734;4.246;2023-02-28T01:08:42;11.25;;;7.72;;
53409;SDS011;66590;50.734;4.246;2023-02-28T01:11:11;12.27;;;7.65;;
53409;SDS011;66590;50.734;4.246;2023-02-28T01:13:40;10.82;;;7.20;;
53409;SDS011;66590;50.734;4.246;2023-02-28T01:16:09;11.77;;;7.35;;
53409;SDS011;66590;50.734;4.246;2023-02-28T01:18:36;11.10;;;7.43;;
53409;SDS011;66590;50.734;4.246;2023-02-28T01:21:04;11.18;;;7.25;;
53409;SDS011;66590;50.734;4.246;2023-02-28T01:23:31;8.18;;;7.28;;
53409;SDS011;66590;50.734;4.246;2023-02-28T01:26:03;11.55;;;7.28;;
53409;SDS011;66590;50.734;4.246;2023-02-28T01:28:30;8.00;;;6.88;;
53409;SDS011;66590;50.734;4.246;2023-02-28T01:30:58;11.27;;;7.30;;
53409;SDS011;66590;50.734;4.246;2023-02-28T01:33:28;8.88;;;7.45;;
53409;SDS011;66590;50.734;4.246;2023-02-28T01:35:58;9.00;;;7.30;;
53409;SDS011;66590;50.734;4.246;2023-02-28T01:38:25;10.90;;;7.13;;
53409;SDS011;66590;50.734;4.246;2023-02-28T01:40:52;9.45;;;6.97;;
53409;SDS011;66590;50.734;4.246;2023-02-28T01:43:21;8.55;;;7.57;;
53409;SDS011;66590;50.734;4.246;2023-02-28T01:45:50;11.00;;;7.32;;
53409;SDS011;66590;50.734;4.246;2023-02-28T01:48:18;9.15;;;7.38;;
53409;SDS011;66590;50.734;4.246;2023-02-28T01:50:48;11.80;;;8.13;;
53409;SDS011;66590;50.734;4.246;2023-02-28T01:53:18;8.35;;;7.05;;
53409;SDS011;66590;50.734;4.246;2023-02-28T01:55:50;10.45;;;7.30;;
53409;SDS011;66590;50.734;4.246;2023-02-28T01:58:20;8.43;;;7.30;;
53409;SDS011;66590;50.734;4.246;2023-02-28T02:00:47;11.30;;;7.63;;
53409;SDS011;66590;50.734;4.246;2023-02-28T02:03:15;8.13;;;7.32;;
53409;SDS011;66590;50.734;4.246;2023-02-28T02:05:43;10.57;;;7.97;;
53409;SDS011;66590;50.734;4.246;2023-02-28T02:08:13;7.85;;;6.97;;
53409;SDS011;66590;50.734;4.246;2023-02-28T02:10:44;11.65;;;7.50;;
53409;SDS011;66590;50.734;4.246;2023-02-28T02:13:36;11.40;;;8.02;;
53409;SDS011;66590;50.734;4.246;2023-02-28T02:16:17;10.32;;;7.70;;
53409;SDS011;66590;50.734;4.246;2023-02-28T02:19:01;10.38;;;8.00;;
53409;SDS011;66590;50.734;4.246;2023-02-28T02:24:44;11.73;;;7.43;;
53409;SDS011;66590;50.734;4.246;2023-02-28T02:27:36;9.60;;;7.65;;
53409;SDS011;66590;50.734;4.246;2023-02-28T02:30:36;12.98;;;8.40;;
53409;SDS011;66590;50.734;4.246;2023-02-28T02:33:35;12.35;;;8.27;;
53409;SDS011;66590;50.734;4.246;2023-02-28T02:36:24;8.63;;;7.70;;
53409;SDS011;66590;50.734;4.246;2023-02-28T02:38:58;12.07;;;7.68;;
53409;SDS011;66590;50.734;4.246;2023-02-28T02:41:34;11.27;;;8.45;;
53409;SDS011;66590;50.734;4.246;2023-02-28T02:44:04;11.95;;;8.15;;
53409;SDS011;66590;50.734;4.246;2023-02-28T02:46:37;11.32;;;8.07;;
53409;SDS011;66590;50.734;4.246;2023-02-28T02:49:08;11.20;;;8.70;;
53409;SDS011;66590;50.734;4.246;2023-02-28T02:51:39;10.85;;;8.02;;
53409;SDS011;66590;50.734;4.246;2023-02-28T02:54:08;11.15;;;8.32;;
53409;SDS011;66590;50.734;4.246;2023-02-28T02:56:41;13.20;;;8.18;;
53409;SDS011;66590;50.734;4.246;2023-02-28T02:59:12;11.05;;;8.85;;
53409;SDS011;66590;50.734;4.246;2023-02-28T03:01:44;9.02;;;8.13;;
53409;SDS011;66590;50.734;4.246;2023-02-28T03:04:12;9.35;;;8.27;;
53409;SDS011;66590;50.734;4.246;2023-02-28T03:06:43;14.68;;;9.30;;
53409;SDS011;66590;50.734;4.246;2023-02-28T03:09:10;12.55;;;8.77;;
53409;SDS011;66590;50.734;4.246;2023-02-28T03:11:38;9.43;;;8.30;;
53409;SDS011;66590;50.734;4.246;2023-02-28T03:14:10;12.02;;;8.50;;
53409;SDS011;66590;50.734;4.246;2023-02-28T03:16:57;9.70;;;8.70;;
53409;SDS011;66590;50.734;4.246;2023-02-28T03:19:44;11.45;;;8.98;;
53409;SDS011;66590;50.734;4.246;2023-02-28T03:22:28;13.23;;;8.98;;
53409;SDS011;66590;50.734;4.246;2023-02-28T03:25:08;10.77;;;8.30;;
53409;SDS011;66590;50.734;4.246;2023-02-28T03:27:40;12.20;;;9.27;;
53409;SDS011;66590;50.734;4.246;2023-02-28T03:30:14;12.52;;;9.50;;
53409;SDS011;66590;50.734;4.246;2023-02-28T03:32:50;14.90;;;9.43;;
53409;SDS011;66590;50.734;4.246;2023-02-28T03:35:22;15.25;;;10.18;;
53409;SDS011;66590;50.734;4.246;2023-02-28T03:37:55;16.23;;;10.23;;
53409;SDS011;66590;50.734;4.246;2023-02-28T03:40:28;11.93;;;9.60;;
53409;SDS011;66590;50.734;4.246;2023-02-28T03:42:59;14.10;;;10.38;;
53409;SDS011;66590;50.734;4.246;2023-02-28T03:45:32;15.93;;;10.07;;
53409;SDS011;66590;50.734;4.246;2023-02-28T03:48:04;12.23;;;9.35;;
53409;SDS011;66590;50.734;4.246;2023-02-28T03:50:36;16.90;;;10.25;;
53409;SDS011;66590;50.734;4.246;2023-02-28T03:53:08;13.27;;;10.57;;
53409;SDS011;66590;50.734;4.246;2023-02-28T03:55:40;16.50;;;10.13;;
53409;SDS011;66590;50.734;4.246;2023-02-28T03:58:11;15.23;;;10.15;;
53409;SDS011;66590;50.734;4.246;2023-02-28T04:00:43;13.82;;;10.25;;
53409;SDS011;66590;50.734;4.246;2023-02-28T04:03:13;13.23;;;10.38;;
53409;SDS011;66590;50.734;4.246;2023-02-28T04:05:45;13.50;;;10.40;;
53409;SDS011;66590;50.734;4.246;2023-02-28T04:08:17;12.15;;;10.63;;
53409;SDS011;66590;50.734;4.246;2023-02-28T04:10:45;14.43;;;10.35;;
53409;SDS011;66590;50.734;4.246;2023-02-28T04:13:16;14.02;;;10.45;;
53409;SDS011;66590;50.734;4.246;2023-02-28T04:15:43;12.70;;;10.85;;
53409;SDS011;66590;50.734;4.246;2023-02-28T04:18:10;15.23;;;10.50;;
53409;SDS011;66590;50.734;4.246;2023-02-28T04:20:37;17.17;;;10.82;;
53409;SDS011;66590;50.734;4.246;2023-02-28T04:23:04;16.67;;;10.80;;
53409;SDS011;66590;50.734;4.246;2023-02-28T04:25:39;14.60;;;11.40;;
53409;SDS011;66590;50.734;4.246;2023-02-28T04:28:06;14.32;;;11.63;;
53409;SDS011;66590;50.734;4.246;2023-02-28T04:30:40;14.52;;;11.25;;
53409;SDS011;66590;50.734;4.246;2023-02-28T04:33:07;14.05;;;11.82;;
53409;SDS011;66590;50.734;4.246;2023-02-28T04:35:41;15.25;;;12.07;;
53409;SDS011;66590;50.734;4.246;2023-02-28T04:38:08;12.90;;;10.95;;
53409;SDS011;66590;50.734;4.246;2023-02-28T04:40:43;13.82;;;11.48;;
53409;SDS011;66590;50.734;4.246;2023-02-28T04:43:10;15.70;;;11.70;;
53409;SDS011;66590;50.734;4.246;2023-02-28T04:45:44;14.15;;;11.77;;
53409;SDS011;66590;50.734;4.246;2023-02-28T04:48:11;13.68;;;11.77;;
53409;SDS011;66590;50.734;4.246;2023-02-28T04:50:47;16.58;;;11.32;;
53409;SDS011;66590;50.734;4.246;2023-02-28T04:53:14;17.45;;;12.10;;
53409;SDS011;66590;50.734;4.246;2023-02-28T04:55:49;12.30;;;10.82;;
53409;SDS011;66590;50.734;4.246;2023-02-28T04:58:16;14.32;;;11.95;;
53409;SDS011;66590;50.734;4.246;2023-02-28T05:00:50;15.90;;;11.60;;
53409;SDS011;66590;50.734;4.246;2023-02-28T05:03:17;14.60;;;11.88;;
53409;SDS011;66590;50.734;4.246;2023-02-28T05:05:53;14.05;;;11.80;;
53409;SDS011;66590;50.734;4.246;2023-02-28T05:08:20;15.60;;;12.10;;
53409;SDS011;66590;50.734;4.246;2023-02-28T05:10:56;17.85;;;12.63;;
53409;SDS011;66590;50.734;4.246;2023-02-28T05:13:22;17.13;;;12.32;;
53409;SDS011;66590;50.734;4.246;2023-02-28T05:15:56;16.25;;;12.27;;
53409;SDS011;66590;50.734;4.246;2023-02-28T05:18:23;16.23;;;12.13;;
53409;SDS011;66590;50.734;4.246;2023-02-28T05:20:57;13.27;;;9.77;;
53409;SDS011;66590;50.734;4.246;2023-02-28T05:23:24;17.85;;;12.40;;
53409;SDS011;66590;50.734;4.246;2023-02-28T05:25:59;19.98;;;12.25;;
53409;SDS011;66590;50.734;4.246;2023-02-28T05:28:26;18.40;;;12.80;;
53409;SDS011;66590;50.734;4.246;2023-02-28T05:31:00;16.20;;;11.70;;
53409;SDS011;66590;50.734;4.246;2023-02-28T05:33:27;15.00;;;11.90;;
53409;SDS011;66590;50.734;4.246;2023-02-28T05:36:01;19.08;;;13.00;;
53409;SDS011;66590;50.734;4.246;2023-02-28T05:38:28;16.45;;;12.93;;
53409;SDS011;66590;50.734;4.246;2023-02-28T05:41:06;16.40;;;12.40;;
53409;SDS011;66590;50.734;4.246;2023-02-28T05:43:34;20.27;;;13.88;;
53409;SDS011;66590;50.734;4.246;2023-02-28T05:46:09;19.60;;;13.87;;
53409;SDS011;66590;50.734;4.246;2023-02-28T05:48:38;18.60;;;13.05;;
53409;SDS011;66590;50.734;4.246;2023-02-28T05:51:13;20.75;;;12.95;;
53409;SDS011;66590;50.734;4.246;2023-02-28T05:53:41;17.95;;;13.98;;
53409;SDS011;66590;50.734;4.246;2023-02-28T05:56:15;20.15;;;13.85;;
53409;SDS011;66590;50.734;4.246;2023-02-28T05:58:43;15.90;;;12.45;;
53409;SDS011;66590;50.734;4.246;2023-02-28T06:01:20;18.60;;;12.90;;
53409;SDS011;66590;50.734;4.246;2023-02-28T06:03:48;16.20;;;12.43;;
53409;SDS011;66590;50.734;4.246;2023-02-28T06:06:22;18.98;;;13.55;;
53409;SDS011;66590;50.734;4.246;2023-02-28T06:08:49;17.88;;;13.13;;
53409;SDS011;66590;50.734;4.246;2023-02-28T06:11:25;20.00;;;12.82;;
53409;SDS011;66590;50.734;4.246;2023-02-28T06:13:53;18.98;;;12.52;;
53409;SDS011;66590;50.734;4.246;2023-02-28T06:16:28;19.33;;;13.07;;
53409;SDS011;66590;50.734;4.246;2023-02-28T06:18:56;20.75;;;13.18;;
53409;SDS011;66590;50.734;4.246;2023-02-28T06:21:31;18.15;;;13.20;;
53409;SDS011;66590;50.734;4.246;2023-02-28T06:23:58;21.23;;;14.32;;
53409;SDS011;66590;50.734;4.246;2023-02-28T06:26:34;19.60;;;13.65;;
53409;SDS011;66590;50.734;4.246;2023-02-28T06:29:02;16.55;;;13.48;;
53409;SDS011;66590;50.734;4.246;2023-02-28T06:31:36;18.40;;;12.63;;
53409;SDS011;66590;50.734;4.246;2023-02-28T06:34:04;20.17;;;12.90;;
53409;SDS011;66590;50.734;4.246;2023-02-28T06:36:38;13.77;;;10.98;;
53409;SDS011;66590;50.734;4.246;2023-02-28T06:39:06;21.25;;;13.27;;
53409;SDS011;66590;50.734;4.246;2023-02-28T06:41:41;23.23;;;14.07;;
53409;SDS011;66590;50.734;4.246;2023-02-28T06:44:21;21.75;;;13.85;;
53409;SDS011;66590;50.734;4.246;2023-02-28T06:46:48;20.70;;;13.65;;
53409;SDS011;66590;50.734;4.246;2023-02-28T06:49:15;17.40;;;12.75;;
53409;SDS011;66590;50.734;4.246;2023-02-28T06:51:43;15.38;;;12.90;;
53409;SDS011;66590;50.734;4.246;2023-02-28T06:54:11;16.35;;;12.93;;
53409;SDS011;66590;50.734;4.246;2023-02-28T06:56:39;20.55;;;12.88;;
53409;SDS011;66590;50.734;4.246;2023-02-28T06:59:07;20.25;;;13.65;;
53409;SDS011;66590;50.734;4.246;2023-02-28T07:01:34;16.55;;;13.48;;
53409;SDS011;66590;50.734;4.246;2023-02-28T07:04:02;20.90;;;13.57;;
53409;SDS011;66590;50.734;4.246;2023-02-28T07:06:29;18.40;;;13.75;;
53409;SDS011;66590;50.734;4.246;2023-02-28T07:08:56;16.15;;;12.73;;
53409;SDS011;66590;50.734;4.246;2023-02-28T07:11:25;16.75;;;12.32;;
53409;SDS011;66590;50.734;4.246;2023-02-28T07:13:53;19.13;;;12.43;;
53409;SDS011;66590;50.734;4.246;2023-02-28T07:16:23;16.83;;;12.60;;
53409;SDS011;66590;50.734;4.246;2023-02-28T07:18:52;19.60;;;13.30;;
53409;SDS011;66590;50.734;4.246;2023-02-28T07:21:19;15.40;;;12.30;;
53409;SDS011;66590;50.734;4.246;2023-02-28T07:23:48;18.27;;;12.80;;
53409;SDS011;66590;50.734;4.246;2023-02-28T07:26:16;18.25;;;12.05;;
53409;SDS011;66590;50.734;4.246;2023-02-28T07:28:46;17.42;;;12.70;;
53409;SDS011;66590;50.734;4.246;2023-02-28T07:31:14;17.70;;;12.45;;
53409;SDS011;66590;50.734;4.246;2023-02-28T07:33:43;14.05;;;12.07;;
53409;SDS011;66590;50.734;4.246;2023-02-28T07:36:11;16.15;;;12.32;;
53409;SDS011;66590;50.734;4.246;2023-02-28T07:38:39;19.02;;;11.93;;
53409;SDS011;66590;50.734;4.246;2023-02-28T07:41:06;17.33;;;11.57;;
53409;SDS011;66590;50.734;4.246;2023-02-28T07:43:33;17.42;;;11.90;;
53409;SDS011;66590;50.734;4.246;2023-02-28T07:46:01;16.83;;;11.77;;
53409;SDS011;66590;50.734;4.246;2023-02-28T07:48:30;14.13;;;11.50;;
53409;SDS011;66590;50.734;4.246;2023-02-28T07:50:58;14.35;;;11.32;;
53409;SDS011;66590;50.734;4.246;2023-02-28T07:53:26;12.27;;;10.63;;
53409;SDS011;66590;50.734;4.246;2023-02-28T07:55:54;15.85;;;12.15;;
53409;SDS011;66590;50.734;4.246;2023-02-28T07:58:22;16.77;;;11.90;;
53409;SDS011;66590;50.734;4.246;2023-02-28T08:00:51;17.05;;;11.30;;
53409;SDS011;66590;50.734;4.246;2023-02-28T08:03:18;19.38;;;11.23;;
53409;SDS011;66590;50.734;4.246;2023-02-28T08:05:47;16.40;;;11.27;;
53409;SDS011;66590;50.734;4.246;2023-02-28T08:08:16;14.70;;;10.50;;
53409;SDS011;66590;50.734;4.246;2023-02-28T08:10:44;15.13;;;10.60;;
53409;SDS011;66590;50.734;4.246;2023-02-28T08:13:11;11.90;;;8.95;;
53409;SDS011;66590;50.734;4.246;2023-02-28T08:15:40;11.00;;;9.00;;
53409;SDS011;66590;50.734;4.246;2023-02-28T08:18:07;12.38;;;8.45;;
53409;SDS011;66590;50.734;4.246;2023-02-28T08:20:37;10.48;;;7.90;;
53409;SDS011;66590;50.734;4.246;2023-02-28T08:23:04;12.45;;;8.13;;
53409;SDS011;66590;50.734;4.246;2023-02-28T08:25:32;9.50;;;7.03;;
53409;SDS011;66590;50.734;4.246;2023-02-28T08:27:59;9.88;;;6.97;;
53409;SDS011;66590;50.734;4.246;2023-02-28T08:30:27;8.38;;;6.65;;
53409;SDS011;66590;50.734;4.246;2023-02-28T08:32:54;7.57;;;6.50;;
53409;SDS011;66590;50.734;4.246;2023-02-28T08:35:21;6.63;;;5.90;;
53409;SDS011;66590;50.734;4.246;2023-02-28T08:37:49;10.63;;;6.38;;
53409;SDS011;66590;50.734;4.246;2023-02-28T08:40:16;7.35;;;6.45;;
53409;SDS011;66590;50.734;4.246;2023-02-28T08:42:45;7.53;;;6.50;;
53409;SDS011;66590;50.734;4.246;2023-02-28T08:45:13;7.03;;;6.30;;
53409;SDS011;66590;50.734;4.246;2023-02-28T08:47:41;7.70;;;6.97;;
53409;SDS011;66590;50.734;4.246;2023-02-28T08:50:08;7.90;;;6.50;;
53409;SDS011;66590;50.734;4.246;2023-02-28T08:52:36;8.55;;;6.10;;
53409;SDS011;66590;50.734;4.246;2023-02-28T08:55:03;6.93;;;6.22;;
53409;SDS011;66590;50.734;4.246;2023-02-28T08:57:30;6.80;;;5.97;;
53409;SDS011;66590;50.734;4.246;2023-02-28T08:59:58;7.97;;;7.13;;
53409;SDS011;66590;50.734;4.246;2023-02-28T09:02:26;8.85;;;6.30;;
53409;SDS011;66590;50.734;4.246;2023-02-28T09:04:53;8.52;;;6.22;;
53409;SDS011;66590;50.734;4.246;2023-02-28T09:07:20;9.75;;;5.95;;
53409;SDS011;66590;50.734;4.246;2023-02-28T09:09:47;11.55;;;7.18;;
53409;SDS011;66590;50.734;4.246;2023-02-28T09:12:14;8.07;;;6.03;;
53409;SDS011;66590;50.734;4.246;2023-02-28T09:14:41;6.90;;;5.45;;
53409;SDS011;66590;50.734;4.246;2023-02-28T09:17:09;8.35;;;5.63;;
53409;SDS011;66590;50.734;4.246;2023-02-28T09:19:36;9.00;;;6.28;;
53409;SDS011;66590;50.734;4.246;2023-02-28T09:22:03;7.25;;;5.50;;
53409;SDS011;66590;50.734;4.246;2023-02-28T09:24:30;6.15;;;5.55;;
53409;SDS011;66590;50.734;4.246;2023-02-28T09:26:58;5.60;;;5.00;;
53409;SDS011;66590;50.734;4.246;2023-02-28T09:29:31;5.22;;;4.57;;
53409;SDS011;66590;50.734;4.246;2023-02-28T09:31:58;5.35;;;4.82;;
53409;SDS011;66590;50.734;4.246;2023-02-28T09:34:27;6.18;;;4.40;;
53409;SDS011;66590;50.734;4.246;2023-02-28T09:36:54;6.00;;;4.35;;
53409;SDS011;66590;50.734;4.246;2023-02-28T09:39:22;6.43;;;4.45;;
53409;SDS011;66590;50.734;4.246;2023-02-28T09:41:51;6.30;;;4.50;;
53409;SDS011;66590;50.734;4.246;2023-02-28T09:44:20;5.20;;;4.43;;
53409;SDS011;66590;50.734;4.246;2023-02-28T09:46:54;5.15;;;4.20;;
53409;SDS011;66590;50.734;4.246;2023-02-28T09:49:24;6.70;;;4.40;;
53409;SDS011;66590;50.734;4.246;2023-02-28T09:51:58;6.18;;;3.70;;
53409;SDS011;66590;50.734;4.246;2023-02-28T09:54:28;6.30;;;4.30;;
53409;SDS011;66590;50.734;4.246;2023-02-28T09:56:58;5.55;;;3.78;;
53409;SDS011;66590;50.734;4.246;2023-02-28T09:59:39;4.72;;;3.83;;
53409;SDS011;66590;50.734;4.246;2023-02-28T10:05:13;5.10;;;4.10;;
53409;SDS011;66590;50.734;4.246;2023-02-28T10:07:46;4.60;;;3.72;;
53409;SDS011;66590;50.734;4.246;2023-02-28T10:10:20;5.10;;;3.90;;
53409;SDS011;66590;50.734;4.246;2023-02-28T10:12:51;5.43;;;3.67;;
53409;SDS011;66590;50.734;4.246;2023-02-28T10:15:21;3.75;;;3.33;;
53409;SDS011;66590;50.734;4.246;2023-02-28T10:17:53;4.00;;;3.20;;
53409;SDS011;66590;50.734;4.246;2023-02-28T10:20:37;4.35;;;3.80;;
53409;SDS011;66590;50.734;4.246;2023-02-28T10:23:09;4.90;;;3.60;;
53409;SDS011;66590;50.734;4.246;2023-02-28T10:28:11;3.70;;;3.40;;
53409;SDS011;66590;50.734;4.246;2023-02-28T10:30:42;3.92;;;3.08;;
53409;SDS011;66590;50.734;4.246;2023-02-28T10:33:15;4.07;;;3.55;;
53409;SDS011;66590;50.734;4.246;2023-02-28T10:35:48;4.03;;;2.72;;
53409;SDS011;66590;50.734;4.246;2023-02-28T10:38:17;3.63;;;2.90;;
53409;SDS011;66590;50.734;4.246;2023-02-28T10:40:45;3.78;;;3.30;;
53409;SDS011;66590;50.734;4.246;2023-02-28T10:43:19;4.00;;;3.25;;
53409;SDS011;66590;50.734;4.246;2023-02-28T10:45:52;3.83;;;2.78;;
53409;SDS011;66590;50.734;4.246;2023-02-28T10:48:36;4.28;;;3.50;;
53409;SDS011;66590;50.734;4.246;2023-02-28T10:51:05;3.92;;;3.10;;
53409;SDS011;66590;50.734;4.246;2023-02-28T10:53:35;3.50;;;3.05;;
53409;SDS011;66590;50.734;4.246;2023-02-28T10:56:27;3.03;;;2.80;;
53409;SDS011;66590;50.734;4.246;2023-02-28T10:58:56;5.10;;;3.20;;
53409;SDS011;66590;50.734;4.246;2023-02-28T11:01:36;3.55;;;3.22;;
53409;SDS011;66590;50.734;4.246;2023-02-28T11:04:16;3.33;;;3.03;;
53409;SDS011;66590;50.734;4.246;2023-02-28T11:06:46;3.25;;;2.95;;
53409;SDS011;66590;50.734;4.246;2023-02-28T11:09:27;4.95;;;3.05;;
53409;SDS011;66590;50.734;4.246;2023-02-28T11:11:59;4.22;;;3.20;;
53409;SDS011;66590;50.734;4.246;2023-02-28T11:14:27;3.08;;;2.78;;
53409;SDS011;66590;50.734;4.246;2023-02-28T11:16:57;3.22;;;2.78;;
53409;SDS011;66590;50.734;4.246;2023-02-28T11:19:29;3.85;;;3.05;;
53409;SDS011;66590;50.734;4.246;2023-02-28T11:22:02;5.10;;;3.58;;
53409;SDS011;66590;50.734;4.246;2023-02-28T11:24:31;3.67;;;3.33;;
53409;SDS011;66590;50.734;4.246;2023-02-28T11:27:02;4.28;;;3.10;;
53409;SDS011;66590;50.734;4.246;2023-02-28T11:29:30;3.03;;;2.72;;
53409;SDS011;66590;50.734;4.246;2023-02-28T11:32:04;2.90;;;2.53;;
53409;SDS011;66590;50.734;4.246;2023-02-28T11:35:00;2.90;;;2.70;;
53409;SDS011;66590;50.734;4.246;2023-02-28T11:37:29;3.03;;;2.72;;
53409;SDS011;66590;50.734;4.246;2023-02-28T11:39:58;4.10;;;2.85;;
53409;SDS011;66590;50.734;4.246;2023-02-28T11:42:38;3.13;;;2.83;;
53409;SDS011;66590;50.734;4.246;2023-02-28T11:45:22;3.33;;;3.03;;
53409;SDS011;66590;50.734;4.246;2023-02-28T11:48:04;3.67;;;3.30;;
53409;SDS011;66590;50.734;4.246;2023-02-28T11:50:40;3.47;;;3.17;;
53409;SDS011;66590;50.734;4.246;2023-02-28T11:53:19;4.03;;;3.40;;
53409;SDS011;66590;50.734;4.246;2023-02-28T11:55:54;4.43;;;3.38;;
53409;SDS011;66590;50.734;4.246;2023-02-28T11:58:27;4.00;;;3.40;;
53409;SDS011;66590;50.734;4.246;2023-02-28T12:01:06;4.97;;;4.00;;
53409;SDS011;66590;50.734;4.246;2023-02-28T12:03:43;4.53;;;4.13;;
53409;SDS011;66590;50.734;4.246;2023-02-28T12:06:20;4.95;;;4.22;;
53409;SDS011;66590;50.734;4.246;2023-02-28T12:09:00;5.40;;;4.30;;
53409;SDS011;66590;50.734;4.246;2023-02-28T12:11:40;4.70;;;4.20;;
53409;SDS011;66590;50.734;4.246;2023-02-28T12:14:22;6.28;;;4.25;;
53409;SDS011;66590;50.734;4.246;2023-02-28T12:17:03;4.90;;;4.50;;
53409;SDS011;66590;50.734;4.246;2023-02-28T12:19:42;4.88;;;4.25;;
53409;SDS011;66590;50.734;4.246;2023-02-28T12:22:19;4.80;;;4.13;;
53409;SDS011;66590;50.734;4.246;2023-02-28T12:24:58;4.47;;;4.07;;
53409;SDS011;66590;50.734;4.246;2023-02-28T12:27:47;4.93;;;4.13;;
53409;SDS011;66590;50.734;4.246;2023-02-28T12:30:16;4.50;;;4.07;;
53409;SDS011;66590;50.734;4.246;2023-02-28T12:32:48;4.72;;;4.32;;
53409;SDS011;66590;50.734;4.246;2023-02-28T12:35:20;6.75;;;3.65;;
53409;SDS011;66590;50.734;4.246;2023-02-28T12:37:52;4.95;;;3.65;;
53409;SDS011;66590;50.734;4.246;2023-02-28T12:40:27;4.20;;;3.22;;
53409;SDS011;66590;50.734;4.246;2023-02-28T12:43:02;3.75;;;3.40;;
53409;SDS011;66590;50.734;4.246;2023-02-28T12:45:36;4.22;;;3.55;;
53409;SDS011;66590;50.734;4.246;2023-02-28T12:48:09;3.72;;;3.42;;
53409;SDS011;66590;50.734;4.246;2023-02-28T12:50:41;4.80;;;3.70;;
53409;SDS011;66590;50.734;4.246;2023-02-28T12:53:09;3.97;;;3.67;;
53409;SDS011;66590;50.734;4.246;2023-02-28T12:55:48;4.97;;;3.42;;
53409;SDS011;66590;50.734;4.246;2023-02-28T12:58:20;4.25;;;3.70;;
53409;SDS011;66590;50.734;4.246;2023-02-28T13:01:03;4.30;;;3.70;;
53409;SDS011;66590;50.734;4.246;2023-02-28T13:03:57;3.83;;;3.53;;
53409;SDS011;66590;50.734;4.246;2023-02-28T13:06:45;5.35;;;3.95;;
53409;SDS011;66590;50.734;4.246;2023-02-28T13:09:26;5.95;;;3.80;;
53409;SDS011;66590;50.734;4.246;2023-02-28T13:11:55;4.38;;;3.97;;
53409;SDS011;66590;50.734;4.246;2023-02-28T13:14:24;5.15;;;3.95;;
53409;SDS011;66590;50.734;4.246;2023-02-28T13:16:58;3.72;;;3.40;;
53409;SDS011;66590;50.734;4.246;2023-02-28T13:19:28;4.32;;;3.92;;
53409;SDS011;66590;50.734;4.246;2023-02-28T13:21:58;4.35;;;3.95;;
53409;SDS011;66590;50.734;4.246;2023-02-28T13:24:42;5.03;;;4.20;;
53409;SDS011;66590;50.734;4.246;2023-02-28T13:27:21;5.05;;;4.30;;
53409;SDS011;66590;50.734;4.246;2023-02-28T13:29:57;4.82;;;4.10;;
53409;SDS011;66590;50.734;4.246;2023-02-28T13:32:34;4.10;;;3.70;;
53409;SDS011;66590;50.734;4.246;2023-02-28T13:35:12;4.53;;;4.13;;
53409;SDS011;66590;50.734;4.246;2023-02-28T13:40:49;4.32;;;3.92;;
53409;SDS011;66590;50.734;4.246;2023-02-28T13:43:18;4.85;;;4.22;;
53409;SDS011;66590;50.734;4.246;2023-02-28T13:46:10;8.05;;;4.35;;
53409;SDS011;66590;50.734;4.246;2023-02-28T13:48:39;7.57;;;4.10;;
53409;SDS011;66590;50.734;4.246;2023-02-28T13:54:04;4.43;;;4.03;;
53409;SDS011;66590;50.734;4.246;2023-02-28T13:56:41;5.53;;;4.00;;
53409;SDS011;66590;50.734;4.246;2023-02-28T13:59:19;4.00;;;3.65;;
53409;SDS011;66590;50.734;4.246;2023-02-28T14:01:57;4.13;;;3.72;;
53409;SDS011;66590;50.734;4.246;2023-02-28T14:04:50;4.90;;;4.40;;
53409;SDS011;66590;50.734;4.246;2023-02-28T14:07:32;4.68;;;3.92;;
53409;SDS011;66590;50.734;4.246;2023-02-28T14:10:15;4.13;;;3.83;;
53409;SDS011;66590;50.734;4.246;2023-02-28T14:12:57;4.60;;;4.00;;
53409;SDS011;66590;50.734;4.246;2023-02-28T14:15:30;4.50;;;3.65;;
53409;SDS011;66590;50.734;4.246;2023-02-28T14:18:10;4.85;;;4.40;;
53409;SDS011;66590;50.734;4.246;2023-02-28T14:20:52;4.30;;;3.90;;
53409;SDS011;66590;50.734;4.246;2023-02-28T14:23:31;3.80;;;3.50;;
53409;SDS011;66590;50.734;4.246;2023-02-28T14:26:33;4.10;;;3.78;;
53409;SDS011;66590;50.734;4.246;2023-02-28T14:29:27;3.63;;;3.33;;
53409;SDS011;66590;50.734;4.246;2023-02-28T14:32:13;4.88;;;4.00;;
53409;SDS011;66590;50.734;4.246;2023-02-28T14:34:46;4.80;;;4.05;;
53409;SDS011;66590;50.734;4.246;2023-02-28T14:37:20;4.07;;;3.70;;
53409;SDS011;66590;50.734;4.246;2023-02-28T14:39:52;4.50;;;3.92;;
53409;SDS011;66590;50.734;4.246;2023-02-28T14:42:30;4.95;;;3.97;;
53409;SDS011;66590;50.734;4.246;2023-02-28T14:44:58;4.10;;;3.70;;
53409;SDS011;66590;50.734;4.246;2023-02-28T14:47:27;4.55;;;4.15;;
53409;SDS011;66590;50.734;4.246;2023-02-28T14:49:58;4.47;;;4.00;;
53409;SDS011;66590;50.734;4.246;2023-02-28T14:52:26;3.70;;;3.40;;
53409;SDS011;66590;50.734;4.246;2023-02-28T14:54:55;8.70;;;4.40;;
53409;SDS011;66590;50.734;4.246;2023-02-28T14:57:25;4.40;;;4.00;;
53409;SDS011;66590;50.734;4.246;2023-02-28T14:59:56;6.97;;;3.78;;
53409;SDS011;66590;50.734;4.246;2023-02-28T15:02:30;7.68;;;4.25;;
53409;SDS011;66590;50.734;4.246;2023-02-28T15:05:01;4.18;;;3.78;;
53409;SDS011;66590;50.734;4.246;2023-02-28T15:07:36;4.30;;;3.90;;
53409;SDS011;66590;50.734;4.246;2023-02-28T15:10:08;6.88;;;4.30;;
53409;SDS011;66590;50.734;4.246;2023-02-28T15:12:37;6.72;;;3.70;;
53409;SDS011;66590;50.734;4.246;2023-02-28T15:15:13;3.85;;;3.55;;
53409;SDS011;66590;50.734;4.246;2023-02-28T15:17:44;3.88;;;3.58;;
53409;SDS011;66590;50.734;4.246;2023-02-28T15:20:16;5.53;;;3.95;;
53409;SDS011;66590;50.734;4.246;2023-02-28T15:22:44;5.13;;;4.03;;